Time;durP1;ratioP1;P1;durP2;ratioP2;P2;SDS_P1;SDS_P2;PMS_P1;PMS_P2;Temp;Humidity;BMP_temperature;BMP_pressure;BME280_temperature;BME280_humidity;BME280_pressure;Samples;Min_cycle;Max_cycle;Signal;HPM_P1;HPM_P2
2020/12/30 04:23:10;;;;;;;47.80;15.78;;;;;;;0.34;100.00;99030.59;1725964;81;20947;-74
2020/12/30 04:26:07;;;;;;;24.80;13.35;;;;;;;0.37;100.00;99019.65;1717709;82;20959;-74
2020/12/30 04:43:33;;;;;;;;;;;;;;;;;;;;;
2020/12/30 05:05:45;;;;;;;40.55;20.90;;;;;;;1.05;100.00;99015.48;1728584;78;21668;-74
2020/12/30 05:09:03;;;;;;;36.13;20.57;;;;;;;1.07;100.00;99025.34;1592386;88;21918;-74
2020/12/30 05:28:51;;;;;;;;;;;;;;;;;;;;;
2020/12/30 05:53:32;;;;;;;72.85;26.23;;;;;;;1.70;100.00;98998.35;1730943;78;22279;-74
2020/12/30 05:56:56;;;;;;;65.45;24.20;;;;;;;1.72;100.00;98998.96;1819520;77;24434;-74
2020/12/30 06:00:33;;;;;;;;;;;;;;;;;;;;;
2020/12/30 06:04:01;;;;;;;;;;;;;;;;;;;;;
2020/12/30 06:07:13;;;;;;;73.97;31.85;;;;;;;1.83;100.00;99003.58;1808792;78;21437;-74
2020/12/30 06:10:27;;;;;;;81.23;38.77;;;;;;;1.95;100.00;99002.92;1757890;78;21469;-74
2020/12/30 06:13:30;;;;;;;91.43;37.83;;;;;;;1.95;100.00;99002.92;1827060;78;21296;-74
2020/12/30 06:16:25;;;;;;;;;;;;;;;;;;;;;
2020/12/30 06:19:28;;;;;;;58.05;31.85;;;;;;;2.03;100.00;98993.41;1814408;78;21513;-74
2020/12/30 06:25:45;;;;;;;61.83;33.42;;;;;;;2.25;100.00;99014.56;1814322;78;27990;-74
2020/12/30 06:28:30;;;;;;;;;;;;;;;;;;;;;
2020/12/30 06:42:06;;;;;;;73.22;38.13;;;;;;;2.61;100.00;99009.14;1702674;77;27584;-73
2020/12/30 06:45:14;;;;;;;65.95;38.23;;;;;;;2.68;100.00;99009.10;1813719;77;27503;-74
2020/12/30 06:48:14;;;;;;;;;;;;;;;;;;;;;
2020/12/30 07:02:04;;;;;;;99.55;44.35;;;;;;;3.16;100.00;99005.33;1782374;80;22745;-73
2020/12/30 07:05:06;;;;;;;84.25;37.15;;;;;;;3.17;100.00;99012.24;1785661;80;21097;-74
2020/12/30 08:24:12;;;;;;;20.95;12.73;;;;;;;3.75;100.00;99015.01;1648030;82;22458;-73
2020/12/30 09:56:12;;;;;;;31.85;16.90;;;;;;;3.39;100.00;98942.85;1759191;79;21553;-72
2020/12/30 09:59:11;;;;;;;;;;;;;;;;;;;;;
2020/12/30 10:01:58;;;;;;;30.72;17.67;;;;;;;3.38;100.00;98921.31;1664405;83;21184;-73
2020/12/30 10:04:41;;;;;;;;;;;;;;;;;;;;;
2020/12/30 10:17:40;;;;;;;28.40;17.23;;;;;;;3.35;100.00;98894.72;1832389;77;22805;-72
2020/12/30 10:21:07;;;;;;;;;;;;;;;;;;;;;
2020/12/30 10:24:05;;;;;;;24.02;14.73;;;;;;;3.36;100.00;98892.91;1804949;77;24661;-74
2020/12/30 10:26:34;;;;;;;27.73;16.55;;;;;;;3.32;100.00;98901.80;1742125;81;21154;-73
2020/12/30 10:50:43;;;;;;;29.95;17.17;;;;;;;3.37;100.00;98871.96;1683414;81;21307;-72
2020/12/30 10:53:17;;;;;;;31.77;19.90;;;;;;;3.36;100.00;98859.22;1750097;80;21103;-71
2020/12/30 11:10:31;;;;;;;36.45;19.55;;;;;;;3.48;100.00;98860.61;1716829;82;21212;-74
2020/12/30 11:16:59;;;;;;;30.45;19.05;;;;;;;3.46;100.00;98853.91;1732132;81;21050;-74
2020/12/30 11:19:41;;;;;;;37.05;19.62;;;;;;;3.47;100.00;98854.19;1732794;82;21439;-74
2020/12/30 11:22:19;;;;;;;28.55;16.10;;;;;;;3.52;100.00;98860.95;1741579;82;21014;-72
2020/12/30 11:29:56;;;;;;;;;;;;;;;3.53;100.00;98858.58;1742561;82;21039;-73
2020/12/30 11:32:24;;;;;;;;;;;;;;;3.55;100.00;98857.84;1749430;82;20169;-72
2020/12/30 11:35:15;;;;;;;40.88;21.45;;;;;;;3.55;100.00;98856.02;1746189;81;20219;-73
2020/12/30 11:37:47;;;;;;;49.53;25.45;;;;;;;3.56;100.00;98865.59;1748381;81;21604;-72
2020/12/30 11:40:59;;;;;;;44.75;23.52;;;;;;;3.58;100.00;98852.11;1769595;80;21153;-72
2020/12/30 11:43:31;;;;;;;45.15;24.98;;;;;;;3.59;100.00;98847.88;1739707;81;22358;-74
2020/12/30 11:49:59;;;;;;;52.85;29.70;;;;;;;3.60;100.00;98847.36;1682694;84;21232;-72
2020/12/30 11:53:11;;;;;;;44.67;24.70;;;;;;;3.64;100.00;98851.99;1689706;84;21065;-73
2020/12/30 11:56:03;;;;;;;48.05;26.27;;;;;;;3.68;100.00;98842.27;1591414;90;21660;-71
2020/12/30 11:58:46;;;;;;;57.38;32.53;;;;;;;3.74;100.00;98832.87;1867035;75;22666;-74
2020/12/30 12:01:17;;;;;;;48.40;26.90;;;;;;;3.73;100.00;98823.30;1812159;78;21018;-73
2020/12/30 12:04:41;;;;;;;54.65;29.80;;;;;;;3.73;100.00;98829.13;1809434;78;21169;-73
2020/12/30 12:07:11;;;;;;;40.17;23.92;;;;;;;3.72;100.00;98834.94;1814146;78;21545;-71
2020/12/30 12:10:07;;;;;;;42.65;24.30;;;;;;;3.71;100.00;98831.20;1799384;78;21510;-73
2020/12/30 12:13:16;;;;;;;42.43;20.97;;;;;;;3.68;100.00;98834.31;1671110;84;21541;-72
2020/12/30 12:24:54;;;;;;;38.02;21.93;;;;;;;3.67;100.00;98835.33;1673156;84;21608;-73
2020/12/30 12:38:40;;;;;;;34.45;20.08;;;;;;;3.74;100.00;98806.84;1743280;78;24332;-73
2020/12/30 12:42:04;;;;;;;45.63;22.77;;;;;;;3.78;100.00;98805.37;1795717;78;24017;-73
2020/12/30 12:45:22;;;;;;;30.45;16.35;;;;;;;3.74;100.00;98799.69;1760580;79;21155;-74
2020/12/30 13:03:39;;;;;;;34.40;21.70;;;;;;;3.77;100.00;98793.95;1713490;82;21249;-73
2020/12/30 13:06:43;;;;;;;35.48;22.10;;;;;;;3.80;100.00;98790.03;1713236;82;21429;-74
2020/12/30 13:09:40;;;;;;;;;;;;;;;;;;;;;
2020/12/30 13:12:30;;;;;;;38.23;22.82;;;;;;;3.82;100.00;98776.81;1803794;78;21035;-72
2020/12/30 13:15:07;;;;;;;37.88;22.20;;;;;;;3.84;100.00;98783.20;1812520;78;21211;-72
2020/12/30 13:17:35;;;;;;;31.15;19.57;;;;;;;3.87;100.00;98781.41;1815648;78;21034;-72
2020/12/30 13:20:20;;;;;;;36.05;21.68;;;;;;;3.89;100.00;98777.21;1811033;77;21506;-73
2020/12/30 13:41:00;;;;;;;41.92;24.05;;;;;;;4.01;100.00;98761.58;1749298;80;23371;-73
2020/12/30 13:48:42;;;;;;;36.73;23.90;;;;;;;4.01;100.00;98766.89;1561418;91;21615;-73
2020/12/30 14:26:01;;;;;;;40.73;22.42;;;;;;;4.12;100.00;98744.57;1733659;76;21253;-73
2020/12/30 14:28:59;;;;;;;34.75;20.10;;;;;;;4.12;100.00;98743.24;1722327;80;21209;-74
2020/12/30 14:31:37;;;;;;;43.65;26.15;;;;;;;4.14;100.00;98749.94;1733037;79;21233;-73
2020/12/30 14:34:58;;;;;;;45.67;27.25;;;;;;;4.15;100.00;98753.39;1726243;81;21280;-75
2020/12/30 14:49:49;;;;;;;41.95;22.35;;;;;;;4.17;100.00;98730.88;1575869;87;21713;-72
2020/12/30 15:11:21;;;;;;;43.68;22.70;;;;;;;4.31;100.00;98752.67;1737596;81;21698;-75
2020/12/30 15:17:49;;;;;;;57.85;28.25;;;;;;;4.39;100.00;98740.91;1738648;82;22259;-73
2020/12/30 15:20:17;;;;;;;58.02;29.67;;;;;;;4.41;100.00;98743.63;1742870;82;21091;-73
2020/12/30 15:22:45;;;;;;;62.75;30.92;;;;;;;4.44;100.00;98723.22;1742814;82;20953;-72
2020/12/30 16:17:55;;;;;;;58.73;32.55;;;;;;;4.87;100.00;98707.84;1513932;92;21236;-72
2020/12/30 16:46:37;;;;;;;69.22;35.45;;;;;;;5.12;100.00;98692.86;1738772;77;22107;-73
2020/12/30 16:56:21;;;;;;;67.70;33.90;;;;;;;5.30;100.00;98679.89;1849562;77;22783;-71
2020/12/30 17:29:03;;;;;;;77.03;36.45;;;;;;;5.55;100.00;98664.84;1792873;75;21058;-72
2020/12/30 18:39:32;;;;;;;;;;;;;;;;;;;;;
2020/12/30 19:12:57;;;;;;;46.77;26.33;;;;;;;5.83;100.00;98690.59;1723459;80;21425;-72
2020/12/30 19:26:47;;;;;;;50.78;25.02;;;;;;;5.84;100.00;98694.05;1689743;77;27132;-72
2020/12/30 19:36:48;;;;;;;54.40;31.82;;;;;;;5.77;100.00;98699.00;1660194;83;21096;-74
2020/12/30 19:39:57;;;;;;;54.20;30.45;;;;;;;5.74;100.00;98696.83;1658855;84;21134;-74
2020/12/30 20:45:37;;;;;;;49.88;28.23;;;;;;;5.69;100.00;98719.92;1751205;79;21078;-73
2020/12/30 20:48:20;;;;;;;56.05;29.75;;;;;;;5.71;100.00;98719.16;1753272;80;21418;-74
2020/12/30 20:59:05;;;;;;;44.58;21.17;;;;;;;5.71;100.00;98711.17;1749182;81;21042;-72
2020/12/30 21:05:52;;;;;;;53.13;30.97;;;;;;;5.71;100.00;98713.83;1699852;83;21209;-71
2020/12/30 21:09:14;;;;;;;47.43;30.97;;;;;;;5.69;100.00;98718.05;1695272;82;21189;-69
2020/12/30 21:28:21;;;;;;;49.40;30.45;;;;;;;5.76;100.00;98705.39;1566493;87;21227;-72
2020/12/30 21:48:12;;;;;;;48.58;27.37;;;;;;;5.71;100.00;98713.83;1704826;80;21072;-72
2020/12/30 21:50:33;;;;;;;45.03;25.68;;;;;;;5.71;100.00;98713.30;1657436;85;21070;-73
2020/12/30 21:53:19;;;;;;;54.03;29.57;;;;;;;5.73;100.00;98707.72;1681126;85;21463;-73
2020/12/30 21:55:59;;;;;;;49.25;26.55;;;;;;;5.71;100.00;98708.51;1677761;84;20968;-73
2020/12/30 21:58:28;;;;;;;43.92;24.65;;;;;;;5.70;100.00;98708.20;1681262;85;21145;-73
2020/12/30 22:01:12;;;;;;;38.05;22.60;;;;;;;5.70;100.00;98697.03;1656686;86;21172;-74
2020/12/30 22:03:50;;;;;;;27.90;14.98;;;;;;;5.71;100.00;98707.98;1689460;84;21224;-73
2020/12/30 22:09:33;;;;;;;49.65;22.37;;;;;;;5.75;100.00;98722.40;1844480;77;22707;-73
2020/12/30 22:12:29;;;;;;;36.90;23.95;;;;;;;5.74;100.00;98718.13;1822770;77;26841;-75
2020/12/30 22:15:14;;;;;;;40.60;25.43;;;;;;;5.71;100.00;98713.30;1773680;80;21071;-74
2020/12/30 22:17:58;;;;;;;44.90;27.55;;;;;;;5.68;100.00;98715.09;1773039;80;21394;-73
2020/12/30 22:20:43;;;;;;;35.50;21.00;;;;;;;5.66;100.00;98717.72;1738694;81;21620;-72
2020/12/30 22:23:21;;;;;;;35.55;20.85;;;;;;;5.68;100.00;98718.28;1734558;81;21355;-72
2020/12/30 22:25:51;;;;;;;38.88;22.55;;;;;;;5.69;100.00;98704.74;1727928;83;21093;-74
2020/12/30 22:28:27;;;;;;;38.65;25.37;;;;;;;5.70;100.00;98711.67;1751671;81;21196;-75
2020/12/30 22:31:02;;;;;;;40.65;23.15;;;;;;;5.69;100.00;98710.60;1727185;83;21111;-71
2020/12/30 22:33:41;;;;;;;39.03;22.80;;;;;;;5.67;100.00;98708.17;1752721;81;21227;-74
2020/12/30 22:36:14;;;;;;;38.55;22.85;;;;;;;5.68;100.00;98709.77;1726626;83;20947;-71
2020/12/30 22:38:43;;;;;;;39.40;23.50;;;;;;;5.66;100.00;98705.73;1752595;81;21077;-71
2020/12/30 22:41:13;;;;;;;47.60;24.65;;;;;;;5.63;100.00;98702.23;1727874;83;20947;-71
2020/12/30 22:43:42;;;;;;;;;;;;;;;5.61;100.00;98701.16;1755138;81;22175;-73
2020/12/30 22:46:15;;;;;;;34.43;17.57;;;;;;;5.61;100.00;98706.98;1752244;81;20257;-73
2020/12/30 22:48:44;;;;;;;44.30;23.95;;;;;;;5.63;100.00;98706.23;1727911;83;20963;-73
2020/12/30 22:51:13;;;;;;;34.43;22.37;;;;;;;5.63;100.00;98703.03;1767722;80;21063;-72
2020/12/30 22:53:42;;;;;;;42.35;24.65;;;;;;;5.66;100.00;98695.92;1784469;79;21059;-73
2020/12/30 22:56:24;;;;;;;39.65;23.73;;;;;;;5.71;100.00;98693.86;1785434;79;21507;-73
2020/12/30 22:58:55;;;;;;;38.85;23.62;;;;;;;5.75;100.00;98693.11;1708503;83;21034;-72
2020/12/30 23:01:27;;;;;;;37.03;18.67;;;;;;;5.78;100.00;98695.80;1679102;84;21139;-75
2020/12/30 23:03:58;;;;;;;38.63;23.80;;;;;;;5.80;100.00;98701.70;1704722;84;20970;-71
2020/12/30 23:06:26;;;;;;;35.60;20.90;;;;;;;5.80;100.00;98695.84;1707800;84;21509;-72
2020/12/30 23:08:56;;;;;;;43.40;23.55;;;;;;;5.80;100.00;98695.05;1707941;84;21206;-71
2020/12/30 23:11:29;;;;;;;35.60;23.07;;;;;;;5.80;100.00;98705.70;1706421;84;21127;-72
2020/12/30 23:14:05;;;;;;;37.98;19.55;;;;;;;5.81;100.00;98706.00;1707962;84;20993;-73
2020/12/30 23:16:36;;;;;;;35.20;22.80;;;;;;;5.87;100.00;98702.88;1708250;84;21017;-73
2020/12/30 23:19:07;;;;;;;36.03;21.62;;;;;;;5.88;100.00;98705.81;1707852;84;21018;-73
2020/12/30 23:21:51;;;;;;;;;;;;;;;;;;;;;
2020/12/30 23:24:18;;;;;;;36.73;23.55;;;;;;;5.91;100.00;98703.48;1852025;77;23937;-71
2020/12/30 23:26:49;;;;;;;34.38;22.82;;;;;;;5.87;100.00;98696.22;1819738;78;20986;-73
2020/12/30 23:29:19;;;;;;;38.02;22.37;;;;;;;5.85;100.00;98694.31;1819171;78;22714;-72
2020/12/30 23:31:50;;;;;;;39.83;23.50;;;;;;;5.84;100.00;98691.39;1748611;82;21047;-73
2020/12/30 23:34:20;;;;;;;36.23;23.40;;;;;;;5.83;100.00;98701.23;1787120;78;20983;-71
2020/12/30 23:36:49;;;;;;;42.95;25.43;;;;;;;5.83;100.00;98696.41;1747807;82;21085;-71
2020/12/30 23:39:17;;;;;;;;;;;;;;;5.80;100.00;98702.50;1821947;78;21034;-73
2020/12/30 23:41:45;;;;;;;;;;;;;;;5.82;100.00;98699.61;1822006;78;21207;-71
2020/12/30 23:44:14;;;;;;;42.48;24.45;;;;;;;5.84;100.00;98704.70;1819260;78;20212;-71
2020/12/30 23:46:43;;;;;;;40.23;24.85;;;;;;;5.83;100.00;98701.73;1819697;78;20983;-73
2020/12/30 23:49:13;;;;;;;40.05;21.37;;;;;;;5.83;100.00;98696.41;1819618;78;20931;-71
2020/12/30 23:51:43;;;;;;;44.58;24.77;;;;;;;5.85;100.00;98695.12;1819059;78;21616;-73
2020/12/30 23:54:15;;;;;;;39.10;23.35;;;;;;;5.86;100.00;98692.75;1819321;78;21806;-72
2020/12/30 23:56:43;;;;;;;;;;;;;;;5.85;100.00;98687.12;1821619;78;21168;-73
2020/12/30 23:59:11;;;;;;;31.42;21.50;;;;;;;5.87;100.00;98683.70;1817739;78;21154;-72
